sensor_id;sensor_type;location;lat;lon;timestamp;temperature;humidity
29431;DHT22;16404;49.902;10.074;2023-04-16T00:02:00;12.80;71.20
29431;DHT22;16404;49.902;10.074;2023-04-16T00:04:45;12.80;71.30
29431;DHT22;16404;49.902;10.074;2023-04-16T00:07:29;12.80;71.30
29431;DHT22;16404;49.902;10.074;2023-04-16T00:10:14;12.80;71.50
29431;DHT22;16404;49.902;10.074;2023-04-16T00:12:59;12.80;71.70
29431;DHT22;16404;49.902;10.074;2023-04-16T00:15:43;12.70;71.60
29431;DHT22;16404;49.902;10.074;2023-04-16T00:18:28;12.80;71.70
29431;DHT22;16404;49.902;10.074;2023-04-16T00:21:12;12.80;71.70
29431;DHT22;16404;49.902;10.074;2023-04-16T00:23:57;12.80;71.70
29431;DHT22;16404;49.902;10.074;2023-04-16T00:26:42;12.70;71.60
29431;DHT22;16404;49.902;10.074;2023-04-16T00:29:28;12.70;71.70
29431;DHT22;16404;49.902;10.074;2023-04-16T00:32:14;12.70;71.90
29431;DHT22;16404;49.902;10.074;2023-04-16T00:34:59;12.70;72.00
29431;DHT22;16404;49.902;10.074;2023-04-16T00:37:43;12.60;72.00
29431;DHT22;16404;49.902;10.074;2023-04-16T00:40:28;12.60;72.20
29431;DHT22;16404;49.902;10.074;2023-04-16T00:43:21;12.60;72.20
29431;DHT22;16404;49.902;10.074;2023-04-16T00:46:07;12.70;72.30
29431;DHT22;16404;49.902;10.074;2023-04-16T00:48:53;12.70;72.20
29431;DHT22;16404;49.902;10.074;2023-04-16T00:51:38;12.70;72.10
29431;DHT22;16404;49.902;10.074;2023-04-16T00:54:24;12.70;72.10
29431;DHT22;16404;49.902;10.074;2023-04-16T00:57:09;12.70;72.30
29431;DHT22;16404;49.902;10.074;2023-04-16T00:59:53;12.70;72.40
29431;DHT22;16404;49.902;10.074;2023-04-16T01:02:38;12.70;72.20
29431;DHT22;16404;49.902;10.074;2023-04-16T01:05:23;12.70;72.00
29431;DHT22;16404;49.902;10.074;2023-04-16T01:08:19;12.70;72.20
29431;DHT22;16404;49.902;10.074;2023-04-16T01:11:04;12.70;72.50
29431;DHT22;16404;49.902;10.074;2023-04-16T01:13:49;12.70;72.30
29431;DHT22;16404;49.902;10.074;2023-04-16T01:16:34;12.70;72.40
29431;DHT22;16404;49.902;10.074;2023-04-16T01:19:19;12.70;72.60
29431;DHT22;16404;49.902;10.074;2023-04-16T01:22:04;12.70;72.80
29431;DHT22;16404;49.902;10.074;2023-04-16T01:24:48;12.60;72.70
29431;DHT22;16404;49.902;10.074;2023-04-16T01:27:33;12.70;72.90
29431;DHT22;16404;49.902;10.074;2023-04-16T01:30:18;12.70;73.00
29431;DHT22;16404;49.902;10.074;2023-04-16T01:33:13;12.70;72.90
29431;DHT22;16404;49.902;10.074;2023-04-16T01:35:58;12.70;72.80
29431;DHT22;16404;49.902;10.074;2023-04-16T01:38:43;12.70;72.80
29431;DHT22;16404;49.902;10.074;2023-04-16T01:41:27;12.80;72.80
29431;DHT22;16404;49.902;10.074;2023-04-16T01:44:12;12.80;72.80
29431;DHT22;16404;49.902;10.074;2023-04-16T01:46:56;12.70;72.90
29431;DHT22;16404;49.902;10.074;2023-04-16T01:49:41;12.80;72.90
29431;DHT22;16404;49.902;10.074;2023-04-16T01:52:28;12.70;72.80
29431;DHT22;16404;49.902;10.074;2023-04-16T01:55:14;12.70;72.80
29431;DHT22;16404;49.902;10.074;2023-04-16T01:57:59;12.80;72.80
29431;DHT22;16404;49.902;10.074;2023-04-16T02:00:48;12.80;72.80
29431;DHT22;16404;49.902;10.074;2023-04-16T02:03:33;12.80;72.90
29431;DHT22;16404;49.902;10.074;2023-04-16T02:06:17;12.80;72.80
29431;DHT22;16404;49.902;10.074;2023-04-16T02:09:04;12.80;72.90
29431;DHT22;16404;49.902;10.074;2023-04-16T02:11:49;12.80;72.90
29431;DHT22;16404;49.902;10.074;2023-04-16T02:14:34;12.90;72.70
29431;DHT22;16404;49.902;10.074;2023-04-16T02:17:19;12.80;72.40
29431;DHT22;16404;49.902;10.074;2023-04-16T02:20:07;12.90;72.30
29431;DHT22;16404;49.902;10.074;2023-04-16T02:22:56;12.90;72.20
29431;DHT22;16404;49.902;10.074;2023-04-16T02:25:43;12.80;72.40
29431;DHT22;16404;49.902;10.074;2023-04-16T02:28:29;12.90;72.30
29431;DHT22;16404;49.902;10.074;2023-04-16T02:31:13;12.90;72.20
29431;DHT22;16404;49.902;10.074;2023-04-16T02:34:02;12.90;72.50
29431;DHT22;16404;49.902;10.074;2023-04-16T02:36:47;12.80;72.70
29431;DHT22;16404;49.902;10.074;2023-04-16T02:39:32;12.80;72.80
29431;DHT22;16404;49.902;10.074;2023-04-16T02:42:17;12.90;72.80
29431;DHT22;16404;49.902;10.074;2023-04-16T02:45:01;12.80;72.80
29431;DHT22;16404;49.902;10.074;2023-04-16T02:47:47;12.80;72.90
29431;DHT22;16404;49.902;10.074;2023-04-16T02:50:31;12.80;72.90
29431;DHT22;16404;49.902;10.074;2023-04-16T02:53:16;12.80;73.10
29431;DHT22;16404;49.902;10.074;2023-04-16T02:56:01;12.80;73.10
29431;DHT22;16404;49.902;10.074;2023-04-16T02:58:45;12.80;73.30
29431;DHT22;16404;49.902;10.074;2023-04-16T03:01:30;12.80;73.30
29431;DHT22;16404;49.902;10.074;2023-04-16T03:04:14;12.70;73.20
29431;DHT22;16404;49.902;10.074;2023-04-16T03:06:59;12.70;73.40
29431;DHT22;16404;49.902;10.074;2023-04-16T03:09:44;12.70;73.50
29431;DHT22;16404;49.902;10.074;2023-04-16T03:12:29;12.70;73.50
29431;DHT22;16404;49.902;10.074;2023-04-16T03:15:13;12.80;73.30
29431;DHT22;16404;49.902;10.074;2023-04-16T03:17:58;12.80;72.90
29431;DHT22;16404;49.902;10.074;2023-04-16T03:20:43;12.80;73.20
29431;DHT22;16404;49.902;10.074;2023-04-16T03:23:29;12.70;73.30
29431;DHT22;16404;49.902;10.074;2023-04-16T03:26:13;12.70;73.40
29431;DHT22;16404;49.902;10.074;2023-04-16T03:28:59;12.70;73.70
29431;DHT22;16404;49.902;10.074;2023-04-16T03:31:47;12.60;73.70
29431;DHT22;16404;49.902;10.074;2023-04-16T03:34:32;12.70;73.80
29431;DHT22;16404;49.902;10.074;2023-04-16T03:37:17;12.70;73.80
29431;DHT22;16404;49.902;10.074;2023-04-16T03:40:01;12.70;73.80
29431;DHT22;16404;49.902;10.074;2023-04-16T03:42:49;12.60;73.80
29431;DHT22;16404;49.902;10.074;2023-04-16T03:45:34;12.60;74.10
29431;DHT22;16404;49.902;10.074;2023-04-16T03:48:19;12.60;74.20
29431;DHT22;16404;49.902;10.074;2023-04-16T03:51:03;12.60;74.20
29431;DHT22;16404;49.902;10.074;2023-04-16T03:53:48;12.60;74.10
29431;DHT22;16404;49.902;10.074;2023-04-16T03:56:33;12.70;74.10
29431;DHT22;16404;49.902;10.074;2023-04-16T03:59:18;12.60;74.10
29431;DHT22;16404;49.902;10.074;2023-04-16T04:02:02;12.70;74.00
29431;DHT22;16404;49.902;10.074;2023-04-16T04:04:47;12.70;74.00
29431;DHT22;16404;49.902;10.074;2023-04-16T04:07:32;12.70;74.00
29431;DHT22;16404;49.902;10.074;2023-04-16T04:10:16;12.70;74.20
29431;DHT22;16404;49.902;10.074;2023-04-16T04:13:02;12.70;74.20
29431;DHT22;16404;49.902;10.074;2023-04-16T04:15:47;12.70;74.20
29431;DHT22;16404;49.902;10.074;2023-04-16T04:18:32;12.60;74.10
29431;DHT22;16404;49.902;10.074;2023-04-16T04:21:17;12.70;74.10
29431;DHT22;16404;49.902;10.074;2023-04-16T04:24:02;12.70;74.10
29431;DHT22;16404;49.902;10.074;2023-04-16T04:26:47;12.70;74.00
29431;DHT22;16404;49.902;10.074;2023-04-16T04:29:32;12.70;73.80
29431;DHT22;16404;49.902;10.074;2023-04-16T04:32:17;12.70;73.90
29431;DHT22;16404;49.902;10.074;2023-04-16T04:35:02;12.70;73.90
29431;DHT22;16404;49.902;10.074;2023-04-16T04:37:47;12.80;73.70
29431;DHT22;16404;49.902;10.074;2023-04-16T04:40:35;12.80;73.30
29431;DHT22;16404;49.902;10.074;2023-04-16T04:43:21;12.80;73.40
29431;DHT22;16404;49.902;10.074;2023-04-16T04:46:05;12.80;73.50
29431;DHT22;16404;49.902;10.074;2023-04-16T04:48:50;12.80;73.70
29431;DHT22;16404;49.902;10.074;2023-04-16T04:51:35;12.80;73.70
29431;DHT22;16404;49.902;10.074;2023-04-16T04:54:19;12.80;73.60
29431;DHT22;16404;49.902;10.074;2023-04-16T04:57:04;12.90;73.60
29431;DHT22;16404;49.902;10.074;2023-04-16T04:59:48;12.80;73.80
29431;DHT22;16404;49.902;10.074;2023-04-16T05:02:34;12.80;73.60
29431;DHT22;16404;49.902;10.074;2023-04-16T05:05:18;12.80;73.60
29431;DHT22;16404;49.902;10.074;2023-04-16T05:08:03;12.80;73.60
29431;DHT22;16404;49.902;10.074;2023-04-16T05:10:48;12.80;73.60
29431;DHT22;16404;49.902;10.074;2023-04-16T05:13:32;12.90;73.70
29431;DHT22;16404;49.902;10.074;2023-04-16T05:16:17;12.90;73.60
29431;DHT22;16404;49.902;10.074;2023-04-16T05:19:02;12.90;73.50
29431;DHT22;16404;49.902;10.074;2023-04-16T05:21:46;12.90;73.50
29431;DHT22;16404;49.902;10.074;2023-04-16T05:24:31;12.90;73.40
29431;DHT22;16404;49.902;10.074;2023-04-16T05:27:15;13.00;73.40
29431;DHT22;16404;49.902;10.074;2023-04-16T05:30:00;12.90;73.30
29431;DHT22;16404;49.902;10.074;2023-04-16T05:32:44;12.90;73.50
29431;DHT22;16404;49.902;10.074;2023-04-16T05:35:29;12.90;73.50
29431;DHT22;16404;49.902;10.074;2023-04-16T05:38:13;13.00;73.50
29431;DHT22;16404;49.902;10.074;2023-04-16T05:40:58;12.90;73.50
29431;DHT22;16404;49.902;10.074;2023-04-16T05:43:43;12.90;73.50
29431;DHT22;16404;49.902;10.074;2023-04-16T05:46:27;13.00;73.50
29431;DHT22;16404;49.902;10.074;2023-04-16T05:49:12;13.00;73.50
29431;DHT22;16404;49.902;10.074;2023-04-16T05:51:56;13.00;73.40
29431;DHT22;16404;49.902;10.074;2023-04-16T05:54:41;13.10;73.40
29431;DHT22;16404;49.902;10.074;2023-04-16T05:57:27;13.00;73.40
29431;DHT22;16404;49.902;10.074;2023-04-16T06:00:12;13.00;73.40
29431;DHT22;16404;49.902;10.074;2023-04-16T06:02:57;13.00;73.40
29431;DHT22;16404;49.902;10.074;2023-04-16T06:05:41;13.00;73.50
29431;DHT22;16404;49.902;10.074;2023-04-16T06:08:26;13.00;73.80
29431;DHT22;16404;49.902;10.074;2023-04-16T06:11:10;13.10;74.00
29431;DHT22;16404;49.902;10.074;2023-04-16T06:13:55;13.10;74.00
29431;DHT22;16404;49.902;10.074;2023-04-16T06:16:40;13.20;74.10
29431;DHT22;16404;49.902;10.074;2023-04-16T06:19:24;13.20;74.00
29431;DHT22;16404;49.902;10.074;2023-04-16T06:22:09;13.30;74.10
29431;DHT22;16404;49.902;10.074;2023-04-16T06:24:53;13.40;74.00
29431;DHT22;16404;49.902;10.074;2023-04-16T06:27:38;13.50;73.90
29431;DHT22;16404;49.902;10.074;2023-04-16T06:30:22;13.50;73.80
29431;DHT22;16404;49.902;10.074;2023-04-16T06:33:07;13.50;73.70
29431;DHT22;16404;49.902;10.074;2023-04-16T06:35:52;13.50;73.50
29431;DHT22;16404;49.902;10.074;2023-04-16T06:38:36;13.60;73.40
29431;DHT22;16404;49.902;10.074;2023-04-16T06:41:21;13.60;73.30
29431;DHT22;16404;49.902;10.074;2023-04-16T06:44:08;13.60;73.10
29431;DHT22;16404;49.902;10.074;2023-04-16T06:46:53;13.60;73.00
29431;DHT22;16404;49.902;10.074;2023-04-16T06:49:37;13.60;73.10
29431;DHT22;16404;49.902;10.074;2023-04-16T06:52:22;13.50;73.10
29431;DHT22;16404;49.902;10.074;2023-04-16T06:55:08;13.60;73.10
29431;DHT22;16404;49.902;10.074;2023-04-16T06:57:52;13.60;73.10
29431;DHT22;16404;49.902;10.074;2023-04-16T07:00:37;13.60;72.90
29431;DHT22;16404;49.902;10.074;2023-04-16T07:03:21;13.70;73.00
29431;DHT22;16404;49.902;10.074;2023-04-16T07:06:06;13.70;73.00
29431;DHT22;16404;49.902;10.074;2023-04-16T07:08:51;13.70;73.00
29431;DHT22;16404;49.902;10.074;2023-04-16T07:11:36;13.80;72.90
29431;DHT22;16404;49.902;10.074;2023-04-16T07:14:20;13.80;72.90
29431;DHT22;16404;49.902;10.074;2023-04-16T07:17:05;13.90;72.90
29431;DHT22;16404;49.902;10.074;2023-04-16T07:19:50;14.00;72.80
29431;DHT22;16404;49.902;10.074;2023-04-16T07:22:35;14.00;72.70
29431;DHT22;16404;49.902;10.074;2023-04-16T07:25:20;14.00;72.40
29431;DHT22;16404;49.902;10.074;2023-04-16T07:28:04;14.00;72.40
29431;DHT22;16404;49.902;10.074;2023-04-16T07:30:49;14.00;72.30
29431;DHT22;16404;49.902;10.074;2023-04-16T07:33:34;14.00;72.40
29431;DHT22;16404;49.902;10.074;2023-04-16T07:36:43;14.10;72.40
29431;DHT22;16404;49.902;10.074;2023-04-16T07:39:33;14.10;72.40
29431;DHT22;16404;49.902;10.074;2023-04-16T07:42:31;14.10;72.40
29431;DHT22;16404;49.902;10.074;2023-04-16T07:45:16;14.20;72.30
29431;DHT22;16404;49.902;10.074;2023-04-16T07:48:01;14.20;72.30
29431;DHT22;16404;49.902;10.074;2023-04-16T07:50:46;14.20;72.00
29431;DHT22;16404;49.902;10.074;2023-04-16T07:53:31;14.20;72.00
29431;DHT22;16404;49.902;10.074;2023-04-16T07:56:15;14.20;71.90
29431;DHT22;16404;49.902;10.074;2023-04-16T07:59:00;14.20;71.60
29431;DHT22;16404;49.902;10.074;2023-04-16T08:01:45;14.20;71.60
29431;DHT22;16404;49.902;10.074;2023-04-16T08:04:30;14.20;71.70
29431;DHT22;16404;49.902;10.074;2023-04-16T08:07:15;14.20;71.80
29431;DHT22;16404;49.902;10.074;2023-04-16T08:09:59;14.10;71.90
29431;DHT22;16404;49.902;10.074;2023-04-16T08:12:44;14.20;72.00
29431;DHT22;16404;49.902;10.074;2023-04-16T08:15:29;14.20;72.10
29431;DHT22;16404;49.902;10.074;2023-04-16T08:18:14;14.30;72.10
29431;DHT22;16404;49.902;10.074;2023-04-16T08:20:59;14.40;71.90
29431;DHT22;16404;49.902;10.074;2023-04-16T08:23:43;14.40;71.40
29431;DHT22;16404;49.902;10.074;2023-04-16T08:26:28;14.40;71.50
29431;DHT22;16404;49.902;10.074;2023-04-16T08:29:13;14.50;71.50
29431;DHT22;16404;49.902;10.074;2023-04-16T08:31:58;14.50;71.60
29431;DHT22;16404;49.902;10.074;2023-04-16T08:34:43;14.50;71.50
29431;DHT22;16404;49.902;10.074;2023-04-16T08:37:28;14.50;71.40
29431;DHT22;16404;49.902;10.074;2023-04-16T08:40:12;14.50;71.50
29431;DHT22;16404;49.902;10.074;2023-04-16T08:42:58;14.60;71.70
29431;DHT22;16404;49.902;10.074;2023-04-16T08:45:46;14.70;71.80
29431;DHT22;16404;49.902;10.074;2023-04-16T08:48:32;14.70;71.70
29431;DHT22;16404;49.902;10.074;2023-04-16T08:51:18;14.80;71.60
29431;DHT22;16404;49.902;10.074;2023-04-16T08:54:08;14.90;71.80
29431;DHT22;16404;49.902;10.074;2023-04-16T08:56:57;15.00;71.60
29431;DHT22;16404;49.902;10.074;2023-04-16T08:59:45;15.00;71.50
29431;DHT22;16404;49.902;10.074;2023-04-16T09:02:31;15.10;71.20
29431;DHT22;16404;49.902;10.074;2023-04-16T09:05:16;15.10;71.10
29431;DHT22;16404;49.902;10.074;2023-04-16T09:08:06;15.20;71.20
29431;DHT22;16404;49.902;10.074;2023-04-16T09:10:50;15.20;71.20
29431;DHT22;16404;49.902;10.074;2023-04-16T09:13:36;15.30;71.20
29431;DHT22;16404;49.902;10.074;2023-04-16T09:16:22;15.30;71.30
29431;DHT22;16404;49.902;10.074;2023-04-16T09:19:08;15.40;71.10
29431;DHT22;16404;49.902;10.074;2023-04-16T09:21:53;15.40;70.90
29431;DHT22;16404;49.902;10.074;2023-04-16T09:24:37;15.50;70.80
29431;DHT22;16404;49.902;10.074;2023-04-16T09:27:22;15.50;70.00
29431;DHT22;16404;49.902;10.074;2023-04-16T09:30:20;15.60;70.20
29431;DHT22;16404;49.902;10.074;2023-04-16T09:33:15;15.70;70.10
29431;DHT22;16404;49.902;10.074;2023-04-16T09:36:01;15.70;70.00
29431;DHT22;16404;49.902;10.074;2023-04-16T09:38:47;15.80;70.20
29431;DHT22;16404;49.902;10.074;2023-04-16T09:41:32;15.80;69.70
29431;DHT22;16404;49.902;10.074;2023-04-16T09:44:19;15.80;69.00
29431;DHT22;16404;49.902;10.074;2023-04-16T09:47:08;15.90;69.00
29431;DHT22;16404;49.902;10.074;2023-04-16T09:49:57;15.90;69.20
29431;DHT22;16404;49.902;10.074;2023-04-16T09:52:44;15.90;68.80
29431;DHT22;16404;49.902;10.074;2023-04-16T09:55:31;15.90;68.70
29431;DHT22;16404;49.902;10.074;2023-04-16T09:58:47;16.00;68.70
29431;DHT22;16404;49.902;10.074;2023-04-16T10:01:44;16.00;68.30
29431;DHT22;16404;49.902;10.074;2023-04-16T10:05:53;16.00;68.30
29431;DHT22;16404;49.902;10.074;2023-04-16T10:12:30;16.10;68.50
29431;DHT22;16404;49.902;10.074;2023-04-16T10:16:02;16.20;68.70
29431;DHT22;16404;49.902;10.074;2023-04-16T10:18:54;16.20;68.80
29431;DHT22;16404;49.902;10.074;2023-04-16T10:23:21;16.10;68.80
29431;DHT22;16404;49.902;10.074;2023-04-16T10:26:54;16.20;69.00
29431;DHT22;16404;49.902;10.074;2023-04-16T10:33:46;16.20;68.90
29431;DHT22;16404;49.902;10.074;2023-04-16T10:36:35;16.30;68.90
29431;DHT22;16404;49.902;10.074;2023-04-16T10:39:22;16.30;68.60
29431;DHT22;16404;49.902;10.074;2023-04-16T10:42:10;16.40;68.30
29431;DHT22;16404;49.902;10.074;2023-04-16T10:45:04;16.40;68.00
29431;DHT22;16404;49.902;10.074;2023-04-16T10:48:17;16.40;67.70
29431;DHT22;16404;49.902;10.074;2023-04-16T10:51:36;16.30;67.60
29431;DHT22;16404;49.902;10.074;2023-04-16T10:54:31;16.30;67.50
29431;DHT22;16404;49.902;10.074;2023-04-16T10:57:22;16.30;67.60
29431;DHT22;16404;49.902;10.074;2023-04-16T11:00:21;16.30;67.50
29431;DHT22;16404;49.902;10.074;2023-04-16T11:03:06;16.20;67.90
29431;DHT22;16404;49.902;10.074;2023-04-16T11:05:52;16.20;68.00
29431;DHT22;16404;49.902;10.074;2023-04-16T11:08:38;16.20;68.00
29431;DHT22;16404;49.902;10.074;2023-04-16T11:11:23;16.30;67.80
29431;DHT22;16404;49.902;10.074;2023-04-16T11:14:09;16.30;67.60
29431;DHT22;16404;49.902;10.074;2023-04-16T11:16:54;16.30;67.30
29431;DHT22;16404;49.902;10.074;2023-04-16T11:19:41;16.40;68.20
29431;DHT22;16404;49.902;10.074;2023-04-16T11:22:26;16.40;67.60
29431;DHT22;16404;49.902;10.074;2023-04-16T11:25:11;16.50;67.20
29431;DHT22;16404;49.902;10.074;2023-04-16T11:27:56;16.60;67.20
29431;DHT22;16404;49.902;10.074;2023-04-16T11:30:42;16.60;66.70
29431;DHT22;16404;49.902;10.074;2023-04-16T11:33:26;16.60;66.30
29431;DHT22;16404;49.902;10.074;2023-04-16T11:36:11;16.70;66.60
29431;DHT22;16404;49.902;10.074;2023-04-16T11:39:00;16.70;66.70
29431;DHT22;16404;49.902;10.074;2023-04-16T11:41:50;16.80;66.90
29431;DHT22;16404;49.902;10.074;2023-04-16T11:44:35;16.90;66.50
29431;DHT22;16404;49.902;10.074;2023-04-16T11:47:23;16.90;65.90
29431;DHT22;16404;49.902;10.074;2023-04-16T11:50:27;16.90;65.20
29431;DHT22;16404;49.902;10.074;2023-04-16T11:53:11;16.90;65.10
29431;DHT22;16404;49.902;10.074;2023-04-16T11:55:56;16.90;64.90
29431;DHT22;16404;49.902;10.074;2023-04-16T11:58:41;16.90;64.90
29431;DHT22;16404;49.902;10.074;2023-04-16T12:01:25;17.00;64.90
29431;DHT22;16404;49.902;10.074;2023-04-16T12:04:11;17.10;64.90
29431;DHT22;16404;49.902;10.074;2023-04-16T12:07:08;17.10;64.70
29431;DHT22;16404;49.902;10.074;2023-04-16T12:10:06;17.30;64.00
29431;DHT22;16404;49.902;10.074;2023-04-16T12:12:52;17.30;63.50
29431;DHT22;16404;49.902;10.074;2023-04-16T12:15:53;17.50;63.70
29431;DHT22;16404;49.902;10.074;2023-04-16T12:19:00;17.50;63.20
29431;DHT22;16404;49.902;10.074;2023-04-16T12:21:48;17.60;62.60
29431;DHT22;16404;49.902;10.074;2023-04-16T12:24:34;17.80;62.70
29431;DHT22;16404;49.902;10.074;2023-04-16T12:27:19;17.80;63.30
29431;DHT22;16404;49.902;10.074;2023-04-16T12:30:06;17.90;63.40
29431;DHT22;16404;49.902;10.074;2023-04-16T12:32:52;18.00;62.50
29431;DHT22;16404;49.902;10.074;2023-04-16T12:35:37;18.20;62.60
29431;DHT22;16404;49.902;10.074;2023-04-16T12:38:21;18.30;61.50
29431;DHT22;16404;49.902;10.074;2023-04-16T12:41:06;18.30;60.90
29431;DHT22;16404;49.902;10.074;2023-04-16T12:43:51;18.30;60.60
29431;DHT22;16404;49.902;10.074;2023-04-16T12:46:37;18.30;59.70
29431;DHT22;16404;49.902;10.074;2023-04-16T12:49:22;18.30;59.80
29431;DHT22;16404;49.902;10.074;2023-04-16T12:52:06;18.30;59.70
29431;DHT22;16404;49.902;10.074;2023-04-16T12:54:51;18.30;59.30
29431;DHT22;16404;49.902;10.074;2023-04-16T12:57:36;18.40;59.10
29431;DHT22;16404;49.902;10.074;2023-04-16T13:00:21;18.30;59.00
29431;DHT22;16404;49.902;10.074;2023-04-16T13:03:05;18.30;59.30
29431;DHT22;16404;49.902;10.074;2023-04-16T13:05:50;18.20;59.40
29431;DHT22;16404;49.902;10.074;2023-04-16T13:08:35;18.20;59.00
29431;DHT22;16404;49.902;10.074;2023-04-16T13:11:20;18.00;59.00
29431;DHT22;16404;49.902;10.074;2023-04-16T13:14:05;17.90;59.30
29431;DHT22;16404;49.902;10.074;2023-04-16T13:16:49;17.80;59.40
29431;DHT22;16404;49.902;10.074;2023-04-16T13:19:34;17.60;59.40
29431;DHT22;16404;49.902;10.074;2023-04-16T13:22:19;17.50;60.40
29431;DHT22;16404;49.902;10.074;2023-04-16T13:25:04;17.50;59.90
29431;DHT22;16404;49.902;10.074;2023-04-16T13:27:49;17.40;59.90
29431;DHT22;16404;49.902;10.074;2023-04-16T13:30:34;17.40;59.80
29431;DHT22;16404;49.902;10.074;2023-04-16T13:33:19;17.30;60.10
29431;DHT22;16404;49.902;10.074;2023-04-16T13:36:04;17.20;60.00
29431;DHT22;16404;49.902;10.074;2023-04-16T13:38:49;17.20;60.10
29431;DHT22;16404;49.902;10.074;2023-04-16T13:41:34;17.10;60.00
29431;DHT22;16404;49.902;10.074;2023-04-16T13:44:18;17.00;60.00
29431;DHT22;16404;49.902;10.074;2023-04-16T13:47:03;16.90;60.20
29431;DHT22;16404;49.902;10.074;2023-04-16T13:49:48;16.70;60.20
29431;DHT22;16404;49.902;10.074;2023-04-16T13:52:33;16.70;60.40
29431;DHT22;16404;49.902;10.074;2023-04-16T13:55:17;16.60;60.80
29431;DHT22;16404;49.902;10.074;2023-04-16T13:58:04;16.40;61.00
29431;DHT22;16404;49.902;10.074;2023-04-16T14:00:50;16.40;61.40
29431;DHT22;16404;49.902;10.074;2023-04-16T14:03:35;16.30;61.70
29431;DHT22;16404;49.902;10.074;2023-04-16T14:06:21;16.30;61.80
29431;DHT22;16404;49.902;10.074;2023-04-16T14:09:06;16.20;61.80
29431;DHT22;16404;49.902;10.074;2023-04-16T14:11:52;16.10;62.00
29431;DHT22;16404;49.902;10.074;2023-04-16T14:14:37;16.10;62.10
29431;DHT22;16404;49.902;10.074;2023-04-16T14:17:22;16.10;62.10
29431;DHT22;16404;49.902;10.074;2023-04-16T14:20:07;16.00;62.10
29431;DHT22;16404;49.902;10.074;2023-04-16T14:22:51;16.00;62.40
29431;DHT22;16404;49.902;10.074;2023-04-16T14:25:36;15.90;62.50
29431;DHT22;16404;49.902;10.074;2023-04-16T14:28:21;15.90;62.60
29431;DHT22;16404;49.902;10.074;2023-04-16T14:31:06;15.90;62.90
29431;DHT22;16404;49.902;10.074;2023-04-16T14:33:50;15.90;62.90
29431;DHT22;16404;49.902;10.074;2023-04-16T14:36:35;15.90;62.90
29431;DHT22;16404;49.902;10.074;2023-04-16T14:39:20;15.90;62.90
29431;DHT22;16404;49.902;10.074;2023-04-16T14:42:05;15.90;63.10
29431;DHT22;16404;49.902;10.074;2023-04-16T14:44:49;15.90;62.90
29431;DHT22;16404;49.902;10.074;2023-04-16T14:47:35;15.90;63.40
29431;DHT22;16404;49.902;10.074;2023-04-16T14:50:21;15.90;62.80
29431;DHT22;16404;49.902;10.074;2023-04-16T14:53:05;15.90;62.80
29431;DHT22;16404;49.902;10.074;2023-04-16T14:55:53;15.90;62.90
29431;DHT22;16404;49.902;10.074;2023-04-16T14:58:41;15.90;63.10
29431;DHT22;16404;49.902;10.074;2023-04-16T15:01:26;15.90;63.00
29431;DHT22;16404;49.902;10.074;2023-04-16T15:04:11;15.90;63.20
29431;DHT22;16404;49.902;10.074;2023-04-16T15:06:56;16.00;63.00
29431;DHT22;16404;49.902;10.074;2023-04-16T15:09:42;16.00;62.90
29431;DHT22;16404;49.902;10.074;2023-04-16T15:12:26;16.00;63.00
29431;DHT22;16404;49.902;10.074;2023-04-16T15:15:11;16.10;62.90
29431;DHT22;16404;49.902;10.074;2023-04-16T15:17:56;16.20;62.70
29431;DHT22;16404;49.902;10.074;2023-04-16T15:20:41;16.20;62.60
29431;DHT22;16404;49.902;10.074;2023-04-16T15:23:25;16.20;62.30
29431;DHT22;16404;49.902;10.074;2023-04-16T15:26:10;16.30;62.10
29431;DHT22;16404;49.902;10.074;2023-04-16T15:28:55;16.30;62.00
29431;DHT22;16404;49.902;10.074;2023-04-16T15:31:39;16.20;62.10
29431;DHT22;16404;49.902;10.074;2023-04-16T15:34:26;16.30;61.90
29431;DHT22;16404;49.902;10.074;2023-04-16T15:37:11;16.20;61.60
29431;DHT22;16404;49.902;10.074;2023-04-16T15:39:56;16.20;61.60
29431;DHT22;16404;49.902;10.074;2023-04-16T15:42:42;16.20;61.80
29431;DHT22;16404;49.902;10.074;2023-04-16T15:45:26;16.20;61.80
29431;DHT22;16404;49.902;10.074;2023-04-16T15:48:11;16.20;61.90
29431;DHT22;16404;49.902;10.074;2023-04-16T15:50:55;16.20;62.00
29431;DHT22;16404;49.902;10.074;2023-04-16T15:53:40;16.10;62.00
29431;DHT22;16404;49.902;10.074;2023-04-16T15:56:25;16.10;61.80
29431;DHT22;16404;49.902;10.074;2023-04-16T15:59:10;16.10;61.80
29431;DHT22;16404;49.902;10.074;2023-04-16T16:01:55;16.10;61.90
29431;DHT22;16404;49.902;10.074;2023-04-16T16:04:40;16.10;61.90
29431;DHT22;16404;49.902;10.074;2023-04-16T16:07:28;16.00;61.70
29431;DHT22;16404;49.902;10.074;2023-04-16T16:10:13;16.00;61.90
29431;DHT22;16404;49.902;10.074;2023-04-16T16:12:58;15.90;62.00
29431;DHT22;16404;49.902;10.074;2023-04-16T16:15:48;15.80;62.10
29431;DHT22;16404;49.902;10.074;2023-04-16T16:18:34;15.80;62.10
29431;DHT22;16404;49.902;10.074;2023-04-16T16:21:19;15.70;62.10
29431;DHT22;16404;49.902;10.074;2023-04-16T16:24:04;15.60;62.20
29431;DHT22;16404;49.902;10.074;2023-04-16T16:26:49;15.60;62.30
29431;DHT22;16404;49.902;10.074;2023-04-16T16:29:33;15.50;62.50
29431;DHT22;16404;49.902;10.074;2023-04-16T16:32:18;15.40;62.60
29431;DHT22;16404;49.902;10.074;2023-04-16T16:35:03;15.40;62.80
29431;DHT22;16404;49.902;10.074;2023-04-16T16:37:47;15.40;62.90
29431;DHT22;16404;49.902;10.074;2023-04-16T16:40:32;15.40;62.90
29431;DHT22;16404;49.902;10.074;2023-04-16T16:43:16;15.50;62.90
29431;DHT22;16404;49.902;10.074;2023-04-16T16:46:01;15.40;62.90
29431;DHT22;16404;49.902;10.074;2023-04-16T16:48:45;15.50;63.00
29431;DHT22;16404;49.902;10.074;2023-04-16T16:51:30;15.50;62.90
29431;DHT22;16404;49.902;10.074;2023-04-16T16:54:16;15.50;62.80
29431;DHT22;16404;49.902;10.074;2023-04-16T16:57:01;15.40;62.90
29431;DHT22;16404;49.902;10.074;2023-04-16T16:59:46;15.50;63.00
29431;DHT22;16404;49.902;10.074;2023-04-16T17:02:33;15.50;62.80
29431;DHT22;16404;49.902;10.074;2023-04-16T17:05:22;15.50;62.70
29431;DHT22;16404;49.902;10.074;2023-04-16T17:08:07;15.50;62.80
29431;DHT22;16404;49.902;10.074;2023-04-16T17:10:53;15.50;62.80
29431;DHT22;16404;49.902;10.074;2023-04-16T17:13:43;15.40;62.70
29431;DHT22;16404;49.902;10.074;2023-04-16T17:16:39;15.40;62.80
29431;DHT22;16404;49.902;10.074;2023-04-16T17:19:29;15.30;62.70
29431;DHT22;16404;49.902;10.074;2023-04-16T17:22:16;15.30;62.60
29431;DHT22;16404;49.902;10.074;2023-04-16T17:25:20;15.30;62.90